Terminal Aerodrome Forecast
Issued by NWS

Home | Current Version | Previous Version | Text Only | Print | Product List | Glossary On
Versions: 1 2 3 4 5 6 7 8 9 10 11 12 13 14 15 16 17 18 19 20 21 22 23 24 25 26 27 28 29 30 31 32 33 34 35 36 37 38 39 40 41 42 43 44
000
FTUS43 KGRR 220541
TAFAZO
TAF
KAZO 220541Z 2206/2306 04005KT 6SM -SHRA VCTS OVC050CB
     FM220700 07007KT 5SM -SHRA BR VCTS SCT015CB BKN025
      TEMPO 2207/2211 1 1/2SM TSRA BR OVC015CB
     FM221100 09008KT 2SM -SHRA BR OVC005
     FM221500 10006KT 4SM BR VCSH OVC008
     FM221800 11008KT 6SM BR SCT008 BKN012
     FM230000 15005KT P6SM BKN035
     FM230300 18010KT P6SM OVC250=

USA.gov is the U.S. government's official web portal to all federal, state and local government web resources and services.